sensor_id;sensor_type;location;lat;lon;timestamp;P1;durP1;ratioP1;P2;durP2;ratioP2
8183;SDS011;4133;48.752;9.088;2023-02-05T00:00:54;7.30;;;3.53;;
8183;SDS011;4133;48.752;9.088;2023-02-05T00:03:20;11.60;;;3.70;;
8183;SDS011;4133;48.752;9.088;2023-02-05T00:08:56;14.90;;;4.17;;
8183;SDS011;4133;48.752;9.088;2023-02-05T00:11:22;9.30;;;3.77;;
8183;SDS011;4133;48.752;9.088;2023-02-05T00:13:48;10.37;;;4.33;;
8183;SDS011;4133;48.752;9.088;2023-02-05T00:16:16;6.67;;;3.73;;
8183;SDS011;4133;48.752;9.088;2023-02-05T00:18:42;6.90;;;3.27;;
8183;SDS011;4133;48.752;9.088;2023-02-05T00:21:08;5.13;;;3.30;;
8183;SDS011;4133;48.752;9.088;2023-02-05T00:23:35;8.60;;;3.17;;
8183;SDS011;4133;48.752;9.088;2023-02-05T00:26:02;9.17;;;3.20;;
8183;SDS011;4133;48.752;9.088;2023-02-05T00:28:30;8.80;;;3.60;;
8183;SDS011;4133;48.752;9.088;2023-02-05T00:30:56;7.87;;;3.23;;
8183;SDS011;4133;48.752;9.088;2023-02-05T00:33:22;8.13;;;3.60;;
8183;SDS011;4133;48.752;9.088;2023-02-05T00:35:48;8.63;;;3.50;;
8183;SDS011;4133;48.752;9.088;2023-02-05T00:38:14;10.23;;;3.10;;
8183;SDS011;4133;48.752;9.088;2023-02-05T00:40:40;8.63;;;3.27;;
8183;SDS011;4133;48.752;9.088;2023-02-05T00:43:06;6.00;;;3.30;;
8183;SDS011;4133;48.752;9.088;2023-02-05T00:45:32;11.87;;;3.03;;
8183;SDS011;4133;48.752;9.088;2023-02-05T00:47:59;6.90;;;2.80;;
8183;SDS011;4133;48.752;9.088;2023-02-05T00:50:25;12.63;;;3.37;;
8183;SDS011;4133;48.752;9.088;2023-02-05T00:52:51;7.17;;;3.00;;
8183;SDS011;4133;48.752;9.088;2023-02-05T00:55:17;6.20;;;2.80;;
8183;SDS011;4133;48.752;9.088;2023-02-05T00:57:43;11.70;;;3.23;;
8183;SDS011;4133;48.752;9.088;2023-02-05T01:00:09;10.60;;;3.47;;
8183;SDS011;4133;48.752;9.088;2023-02-05T01:02:35;8.13;;;2.93;;
8183;SDS011;4133;48.752;9.088;2023-02-05T01:05:01;10.27;;;3.40;;
8183;SDS011;4133;48.752;9.088;2023-02-05T01:10:31;10.03;;;3.10;;
8183;SDS011;4133;48.752;9.088;2023-02-05T01:12:57;10.50;;;3.57;;
8183;SDS011;4133;48.752;9.088;2023-02-05T01:15:23;6.80;;;3.20;;
8183;SDS011;4133;48.752;9.088;2023-02-05T01:17:49;9.27;;;3.70;;
8183;SDS011;4133;48.752;9.088;2023-02-05T01:20:15;8.83;;;3.70;;
8183;SDS011;4133;48.752;9.088;2023-02-05T01:22:41;6.63;;;2.80;;
8183;SDS011;4133;48.752;9.088;2023-02-05T01:25:07;8.00;;;2.93;;
8183;SDS011;4133;48.752;9.088;2023-02-05T01:27:34;6.63;;;2.70;;
8183;SDS011;4133;48.752;9.088;2023-02-05T01:30:00;4.63;;;2.90;;
8183;SDS011;4133;48.752;9.088;2023-02-05T01:32:26;9.50;;;2.67;;
8183;SDS011;4133;48.752;9.088;2023-02-05T01:34:53;6.50;;;2.90;;
8183;SDS011;4133;48.752;9.088;2023-02-05T01:37:19;6.40;;;2.70;;
8183;SDS011;4133;48.752;9.088;2023-02-05T01:39:45;9.40;;;2.80;;
8183;SDS011;4133;48.752;9.088;2023-02-05T01:42:14;8.70;;;3.00;;
8183;SDS011;4133;48.752;9.088;2023-02-05T01:44:41;6.83;;;2.93;;
8183;SDS011;4133;48.752;9.088;2023-02-05T01:47:07;7.07;;;2.77;;
8183;SDS011;4133;48.752;9.088;2023-02-05T01:49:40;8.43;;;2.53;;
8183;SDS011;4133;48.752;9.088;2023-02-05T01:52:08;6.67;;;2.50;;
8183;SDS011;4133;48.752;9.088;2023-02-05T01:54:36;8.97;;;2.60;;
8183;SDS011;4133;48.752;9.088;2023-02-05T01:57:08;4.53;;;2.50;;
8183;SDS011;4133;48.752;9.088;2023-02-05T01:59:36;5.43;;;2.37;;
8183;SDS011;4133;48.752;9.088;2023-02-05T02:02:03;7.13;;;2.57;;
8183;SDS011;4133;48.752;9.088;2023-02-05T02:10:08;6.47;;;2.70;;
8183;SDS011;4133;48.752;9.088;2023-02-05T02:12:36;5.90;;;2.77;;
8183;SDS011;4133;48.752;9.088;2023-02-05T02:15:10;7.40;;;3.10;;
8183;SDS011;4133;48.752;9.088;2023-02-05T02:17:38;6.50;;;3.13;;
8183;SDS011;4133;48.752;9.088;2023-02-05T02:20:10;6.67;;;2.70;;
8183;SDS011;4133;48.752;9.088;2023-02-05T02:27:53;10.83;;;3.10;;
8183;SDS011;4133;48.752;9.088;2023-02-05T02:31:05;7.87;;;2.93;;
8183;SDS011;4133;48.752;9.088;2023-02-05T02:33:13;6.90;;;2.80;;
8183;SDS011;4133;48.752;9.088;2023-02-05T02:40:50;8.13;;;2.47;;
8183;SDS011;4133;48.752;9.088;2023-02-05T02:43:25;6.33;;;2.50;;
8183;SDS011;4133;48.752;9.088;2023-02-05T02:46:00;6.93;;;2.57;;
8183;SDS011;4133;48.752;9.088;2023-02-05T02:48:28;5.27;;;2.33;;
8183;SDS011;4133;48.752;9.088;2023-02-05T02:50:55;6.97;;;2.27;;
8183;SDS011;4133;48.752;9.088;2023-02-05T02:53:24;6.00;;;2.90;;
8183;SDS011;4133;48.752;9.088;2023-02-05T02:55:51;7.50;;;2.53;;
8183;SDS011;4133;48.752;9.088;2023-02-05T02:58:37;4.93;;;2.90;;
8183;SDS011;4133;48.752;9.088;2023-02-05T03:01:05;5.93;;;2.40;;
8183;SDS011;4133;48.752;9.088;2023-02-05T03:03:31;6.70;;;2.73;;
8183;SDS011;4133;48.752;9.088;2023-02-05T03:09:11;5.33;;;2.60;;
8183;SDS011;4133;48.752;9.088;2023-02-05T03:11:38;8.20;;;2.97;;
8183;SDS011;4133;48.752;9.088;2023-02-05T03:14:04;6.57;;;2.60;;
8183;SDS011;4133;48.752;9.088;2023-02-05T03:16:30;8.10;;;2.67;;
8183;SDS011;4133;48.752;9.088;2023-02-05T03:18:57;6.03;;;2.90;;
8183;SDS011;4133;48.752;9.088;2023-02-05T03:21:24;8.37;;;3.10;;
8183;SDS011;4133;48.752;9.088;2023-02-05T03:23:50;6.70;;;3.17;;
8183;SDS011;4133;48.752;9.088;2023-02-05T03:26:24;6.03;;;2.80;;
8183;SDS011;4133;48.752;9.088;2023-02-05T03:28:50;5.53;;;2.67;;
8183;SDS011;4133;48.752;9.088;2023-02-05T03:31:22;5.70;;;2.50;;
8183;SDS011;4133;48.752;9.088;2023-02-05T03:36:19;8.97;;;3.20;;
8183;SDS011;4133;48.752;9.088;2023-02-05T03:38:51;8.80;;;2.93;;
8183;SDS011;4133;48.752;9.088;2023-02-05T03:44:10;7.17;;;3.17;;
8183;SDS011;4133;48.752;9.088;2023-02-05T03:46:43;4.60;;;2.30;;
8183;SDS011;4133;48.752;9.088;2023-02-05T03:49:18;8.17;;;2.43;;
8183;SDS011;4133;48.752;9.088;2023-02-05T03:51:49;7.47;;;2.90;;
8183;SDS011;4133;48.752;9.088;2023-02-05T03:54:22;4.67;;;2.50;;
8183;SDS011;4133;48.752;9.088;2023-02-05T03:56:53;6.27;;;2.37;;
8183;SDS011;4133;48.752;9.088;2023-02-05T03:59:21;7.67;;;2.73;;
8183;SDS011;4133;48.752;9.088;2023-02-05T04:01:48;5.57;;;2.33;;
8183;SDS011;4133;48.752;9.088;2023-02-05T04:04:14;5.33;;;2.50;;
8183;SDS011;4133;48.752;9.088;2023-02-05T04:09:44;5.80;;;2.63;;
8183;SDS011;4133;48.752;9.088;2023-02-05T04:12:10;5.50;;;2.40;;
8183;SDS011;4133;48.752;9.088;2023-02-05T04:14:36;7.10;;;2.60;;
8183;SDS011;4133;48.752;9.088;2023-02-05T04:17:02;4.47;;;2.20;;
8183;SDS011;4133;48.752;9.088;2023-02-05T04:19:28;5.53;;;2.60;;
8183;SDS011;4133;48.752;9.088;2023-02-05T04:21:55;4.23;;;2.50;;
8183;SDS011;4133;48.752;9.088;2023-02-05T04:24:21;6.23;;;2.50;;
8183;SDS011;4133;48.752;9.088;2023-02-05T04:26:47;5.73;;;2.80;;
8183;SDS011;4133;48.752;9.088;2023-02-05T04:29:14;6.73;;;2.80;;
8183;SDS011;4133;48.752;9.088;2023-02-05T04:31:40;3.63;;;2.47;;
8183;SDS011;4133;48.752;9.088;2023-02-05T04:34:06;7.63;;;2.97;;
8183;SDS011;4133;48.752;9.088;2023-02-05T04:36:32;7.47;;;2.87;;
8183;SDS011;4133;48.752;9.088;2023-02-05T04:38:58;5.10;;;2.47;;
8183;SDS011;4133;48.752;9.088;2023-02-05T04:41:24;6.40;;;2.50;;
8183;SDS011;4133;48.752;9.088;2023-02-05T04:43:50;7.27;;;2.77;;
8183;SDS011;4133;48.752;9.088;2023-02-05T04:46:16;6.23;;;3.07;;
8183;SDS011;4133;48.752;9.088;2023-02-05T04:48:42;5.30;;;2.70;;
8183;SDS011;4133;48.752;9.088;2023-02-05T04:51:09;9.37;;;2.57;;
8183;SDS011;4133;48.752;9.088;2023-02-05T04:53:35;8.23;;;3.17;;
8183;SDS011;4133;48.752;9.088;2023-02-05T04:58:34;10.43;;;2.53;;
8183;SDS011;4133;48.752;9.088;2023-02-05T05:01:00;7.17;;;2.90;;
8183;SDS011;4133;48.752;9.088;2023-02-05T05:03:26;6.60;;;2.57;;
8183;SDS011;4133;48.752;9.088;2023-02-05T05:08:55;5.50;;;2.60;;
8183;SDS011;4133;48.752;9.088;2023-02-05T05:11:21;5.37;;;2.20;;
8183;SDS011;4133;48.752;9.088;2023-02-05T05:13:47;8.13;;;2.80;;
8183;SDS011;4133;48.752;9.088;2023-02-05T05:16:15;6.17;;;2.80;;
8183;SDS011;4133;48.752;9.088;2023-02-05T05:18:41;8.97;;;2.23;;
8183;SDS011;4133;48.752;9.088;2023-02-05T05:21:07;9.40;;;2.97;;
8183;SDS011;4133;48.752;9.088;2023-02-05T05:23:36;7.83;;;2.87;;
8183;SDS011;4133;48.752;9.088;2023-02-05T05:26:05;8.30;;;3.13;;
8183;SDS011;4133;48.752;9.088;2023-02-05T05:28:32;6.47;;;2.93;;
8183;SDS011;4133;48.752;9.088;2023-02-05T05:30:59;9.00;;;3.40;;
8183;SDS011;4133;48.752;9.088;2023-02-05T05:33:25;5.80;;;2.87;;
8183;SDS011;4133;48.752;9.088;2023-02-05T05:35:51;6.70;;;2.80;;
8183;SDS011;4133;48.752;9.088;2023-02-05T05:38:17;5.13;;;2.87;;
8183;SDS011;4133;48.752;9.088;2023-02-05T05:40:43;5.67;;;2.80;;
8183;SDS011;4133;48.752;9.088;2023-02-05T05:43:28;5.70;;;2.63;;
8183;SDS011;4133;48.752;9.088;2023-02-05T05:46:13;8.20;;;2.73;;
8183;SDS011;4133;48.752;9.088;2023-02-05T05:48:40;9.00;;;2.90;;
8183;SDS011;4133;48.752;9.088;2023-02-05T05:51:05;10.83;;;3.00;;
8183;SDS011;4133;48.752;9.088;2023-02-05T05:53:31;6.37;;;2.70;;
8183;SDS011;4133;48.752;9.088;2023-02-05T05:55:57;6.70;;;3.03;;
8183;SDS011;4133;48.752;9.088;2023-02-05T05:58:23;6.07;;;3.00;;
8183;SDS011;4133;48.752;9.088;2023-02-05T06:00:49;6.93;;;2.37;;
8183;SDS011;4133;48.752;9.088;2023-02-05T06:03:15;5.00;;;2.53;;
8183;SDS011;4133;48.752;9.088;2023-02-05T06:05:41;5.90;;;2.93;;
8183;SDS011;4133;48.752;9.088;2023-02-05T06:08:07;5.93;;;3.27;;
8183;SDS011;4133;48.752;9.088;2023-02-05T06:10:33;9.20;;;3.83;;
8183;SDS011;4133;48.752;9.088;2023-02-05T06:13:00;6.90;;;2.57;;
8183;SDS011;4133;48.752;9.088;2023-02-05T06:15:26;5.97;;;2.80;;
8183;SDS011;4133;48.752;9.088;2023-02-05T06:17:52;5.90;;;2.87;;
8183;SDS011;4133;48.752;9.088;2023-02-05T06:20:18;7.30;;;2.90;;
8183;SDS011;4133;48.752;9.088;2023-02-05T06:22:45;6.87;;;2.70;;
8183;SDS011;4133;48.752;9.088;2023-02-05T06:25:11;10.03;;;2.93;;
8183;SDS011;4133;48.752;9.088;2023-02-05T06:27:37;8.57;;;3.23;;
8183;SDS011;4133;48.752;9.088;2023-02-05T06:30:03;6.23;;;3.23;;
8183;SDS011;4133;48.752;9.088;2023-02-05T06:32:29;10.40;;;3.13;;
8183;SDS011;4133;48.752;9.088;2023-02-05T06:34:55;8.83;;;3.20;;
8183;SDS011;4133;48.752;9.088;2023-02-05T06:37:21;8.03;;;3.43;;
8183;SDS011;4133;48.752;9.088;2023-02-05T06:39:49;13.37;;;3.60;;
8183;SDS011;4133;48.752;9.088;2023-02-05T06:42:15;5.97;;;3.33;;
8183;SDS011;4133;48.752;9.088;2023-02-05T06:44:41;10.50;;;3.70;;
8183;SDS011;4133;48.752;9.088;2023-02-05T06:47:07;9.50;;;3.70;;
8183;SDS011;4133;48.752;9.088;2023-02-05T06:49:33;7.83;;;2.90;;
8183;SDS011;4133;48.752;9.088;2023-02-05T06:51:59;5.90;;;2.67;;
8183;SDS011;4133;48.752;9.088;2023-02-05T06:54:25;7.43;;;3.40;;
8183;SDS011;4133;48.752;9.088;2023-02-05T06:56:51;6.97;;;3.10;;
8183;SDS011;4133;48.752;9.088;2023-02-05T06:59:17;7.40;;;2.80;;
8183;SDS011;4133;48.752;9.088;2023-02-05T07:01:43;7.23;;;2.70;;
8183;SDS011;4133;48.752;9.088;2023-02-05T07:04:09;3.53;;;2.17;;
8183;SDS011;4133;48.752;9.088;2023-02-05T07:09:39;6.00;;;2.53;;
8183;SDS011;4133;48.752;9.088;2023-02-05T07:12:05;5.00;;;2.33;;
8183;SDS011;4133;48.752;9.088;2023-02-05T07:14:31;4.97;;;2.60;;
8183;SDS011;4133;48.752;9.088;2023-02-05T07:17:01;7.57;;;3.03;;
8183;SDS011;4133;48.752;9.088;2023-02-05T07:19:27;7.00;;;3.13;;
8183;SDS011;4133;48.752;9.088;2023-02-05T07:21:52;8.33;;;3.10;;
8183;SDS011;4133;48.752;9.088;2023-02-05T07:24:18;7.60;;;2.93;;
8183;SDS011;4133;48.752;9.088;2023-02-05T07:26:44;5.77;;;3.10;;
8183;SDS011;4133;48.752;9.088;2023-02-05T07:29:11;9.27;;;3.47;;
8183;SDS011;4133;48.752;9.088;2023-02-05T07:31:36;11.60;;;3.30;;
8183;SDS011;4133;48.752;9.088;2023-02-05T07:34:02;5.03;;;2.80;;
8183;SDS011;4133;48.752;9.088;2023-02-05T07:36:28;8.07;;;2.63;;
8183;SDS011;4133;48.752;9.088;2023-02-05T07:38:54;4.37;;;2.70;;
8183;SDS011;4133;48.752;9.088;2023-02-05T07:41:20;9.17;;;3.27;;
8183;SDS011;4133;48.752;9.088;2023-02-05T07:43:49;6.03;;;2.83;;
8183;SDS011;4133;48.752;9.088;2023-02-05T07:46:16;5.73;;;2.87;;
8183;SDS011;4133;48.752;9.088;2023-02-05T07:48:42;11.80;;;3.17;;
8183;SDS011;4133;48.752;9.088;2023-02-05T07:51:11;8.93;;;3.33;;
8183;SDS011;4133;48.752;9.088;2023-02-05T07:53:38;5.87;;;3.17;;
8183;SDS011;4133;48.752;9.088;2023-02-05T07:56:04;6.17;;;3.17;;
8183;SDS011;4133;48.752;9.088;2023-02-05T07:58:30;8.77;;;3.37;;
8183;SDS011;4133;48.752;9.088;2023-02-05T08:01:00;6.43;;;3.00;;
8183;SDS011;4133;48.752;9.088;2023-02-05T08:03:29;4.30;;;2.20;;
8183;SDS011;4133;48.752;9.088;2023-02-05T08:06:02;5.53;;;2.47;;
8183;SDS011;4133;48.752;9.088;2023-02-05T08:08:28;5.23;;;2.50;;
8183;SDS011;4133;48.752;9.088;2023-02-05T08:10:57;6.37;;;2.60;;
8183;SDS011;4133;48.752;9.088;2023-02-05T08:13:24;4.20;;;2.73;;
8183;SDS011;4133;48.752;9.088;2023-02-05T08:15:50;4.87;;;2.83;;
8183;SDS011;4133;48.752;9.088;2023-02-05T08:18:16;7.13;;;3.20;;
8183;SDS011;4133;48.752;9.088;2023-02-05T08:20:42;6.13;;;2.97;;
8183;SDS011;4133;48.752;9.088;2023-02-05T08:23:08;5.17;;;3.20;;
8183;SDS011;4133;48.752;9.088;2023-02-05T08:25:34;7.33;;;3.50;;
8183;SDS011;4133;48.752;9.088;2023-02-05T08:28:00;8.57;;;3.40;;
8183;SDS011;4133;48.752;9.088;2023-02-05T08:30:26;10.15;;;4.45;;
8183;SDS011;4133;48.752;9.088;2023-02-05T08:32:52;5.33;;;3.40;;
8183;SDS011;4133;48.752;9.088;2023-02-05T08:35:18;10.17;;;3.70;;
8183;SDS011;4133;48.752;9.088;2023-02-05T08:37:47;9.57;;;5.30;;
8183;SDS011;4133;48.752;9.088;2023-02-05T08:40:13;6.73;;;4.33;;
8183;SDS011;4133;48.752;9.088;2023-02-05T08:42:39;6.90;;;3.23;;
8183;SDS011;4133;48.752;9.088;2023-02-05T08:45:05;9.27;;;3.43;;
8183;SDS011;4133;48.752;9.088;2023-02-05T08:47:33;7.73;;;3.23;;
8183;SDS011;4133;48.752;9.088;2023-02-05T08:49:59;8.90;;;3.13;;
8183;SDS011;4133;48.752;9.088;2023-02-05T08:52:25;7.90;;;3.63;;
8183;SDS011;4133;48.752;9.088;2023-02-05T08:54:51;9.57;;;4.57;;
8183;SDS011;4133;48.752;9.088;2023-02-05T08:57:17;8.53;;;3.67;;
8183;SDS011;4133;48.752;9.088;2023-02-05T08:59:43;6.60;;;2.80;;
8183;SDS011;4133;48.752;9.088;2023-02-05T09:02:12;7.63;;;3.13;;
8183;SDS011;4133;48.752;9.088;2023-02-05T09:04:38;5.27;;;2.70;;
8183;SDS011;4133;48.752;9.088;2023-02-05T09:10:09;4.60;;;2.97;;
8183;SDS011;4133;48.752;9.088;2023-02-05T09:12:35;6.00;;;3.07;;
8183;SDS011;4133;48.752;9.088;2023-02-05T09:15:01;7.07;;;3.50;;
8183;SDS011;4133;48.752;9.088;2023-02-05T09:17:27;7.70;;;3.30;;
8183;SDS011;4133;48.752;9.088;2023-02-05T09:19:53;11.13;;;3.83;;
8183;SDS011;4133;48.752;9.088;2023-02-05T09:22:19;7.80;;;4.03;;
8183;SDS011;4133;48.752;9.088;2023-02-05T09:24:45;7.33;;;3.77;;
8183;SDS011;4133;48.752;9.088;2023-02-05T09:27:11;7.97;;;3.70;;
8183;SDS011;4133;48.752;9.088;2023-02-05T09:29:39;6.57;;;3.47;;
8183;SDS011;4133;48.752;9.088;2023-02-05T09:32:05;7.73;;;3.37;;
8183;SDS011;4133;48.752;9.088;2023-02-05T09:34:31;9.13;;;3.27;;
8183;SDS011;4133;48.752;9.088;2023-02-05T09:36:57;5.97;;;3.50;;
8183;SDS011;4133;48.752;9.088;2023-02-05T09:39:23;7.07;;;3.50;;
8183;SDS011;4133;48.752;9.088;2023-02-05T09:41:52;13.53;;;4.03;;
8183;SDS011;4133;48.752;9.088;2023-02-05T09:44:40;8.07;;;4.20;;
8183;SDS011;4133;48.752;9.088;2023-02-05T09:54:42;10.43;;;5.57;;
8183;SDS011;4133;48.752;9.088;2023-02-05T09:57:15;11.37;;;5.10;;
8183;SDS011;4133;48.752;9.088;2023-02-05T09:59:44;7.73;;;4.00;;
8183;SDS011;4133;48.752;9.088;2023-02-05T10:04:39;12.33;;;5.13;;
8183;SDS011;4133;48.752;9.088;2023-02-05T10:20:30;8.37;;;4.23;;
8183;SDS011;4133;48.752;9.088;2023-02-05T10:28:04;10.37;;;4.40;;
8183;SDS011;4133;48.752;9.088;2023-02-05T10:31:19;9.80;;;4.60;;
8183;SDS011;4133;48.752;9.088;2023-02-05T10:34:06;9.83;;;4.73;;
8183;SDS011;4133;48.752;9.088;2023-02-05T10:36:12;10.43;;;4.93;;
8183;SDS011;4133;48.752;9.088;2023-02-05T10:38:40;8.13;;;4.63;;
8183;SDS011;4133;48.752;9.088;2023-02-05T10:43:58;11.00;;;5.07;;
8183;SDS011;4133;48.752;9.088;2023-02-05T10:46:30;10.43;;;4.53;;
8183;SDS011;4133;48.752;9.088;2023-02-05T10:51:52;17.07;;;5.10;;
8183;SDS011;4133;48.752;9.088;2023-02-05T10:54:26;10.00;;;4.80;;
8183;SDS011;4133;48.752;9.088;2023-02-05T10:56:53;10.87;;;4.47;;
8183;SDS011;4133;48.752;9.088;2023-02-05T10:59:23;10.70;;;4.90;;
8183;SDS011;4133;48.752;9.088;2023-02-05T11:01:50;9.63;;;4.97;;
8183;SDS011;4133;48.752;9.088;2023-02-05T11:06:58;8.60;;;4.27;;
8183;SDS011;4133;48.752;9.088;2023-02-05T11:09:30;9.83;;;4.57;;
8183;SDS011;4133;48.752;9.088;2023-02-05T11:11:57;14.20;;;5.57;;
8183;SDS011;4133;48.752;9.088;2023-02-05T11:17:30;11.07;;;5.97;;
8183;SDS011;4133;48.752;9.088;2023-02-05T11:22:26;18.87;;;7.00;;
8183;SDS011;4133;48.752;9.088;2023-02-05T11:25:03;19.93;;;8.97;;
8183;SDS011;4133;48.752;9.088;2023-02-05T11:27:30;18.57;;;8.40;;
8183;SDS011;4133;48.752;9.088;2023-02-05T11:29:58;28.73;;;12.83;;
8183;SDS011;4133;48.752;9.088;2023-02-05T11:32:31;30.87;;;14.60;;
8183;SDS011;4133;48.752;9.088;2023-02-05T11:37:35;26.73;;;12.80;;
8183;SDS011;4133;48.752;9.088;2023-02-05T11:40:03;10.30;;;5.97;;
8183;SDS011;4133;48.752;9.088;2023-02-05T11:42:29;12.63;;;6.00;;
8183;SDS011;4133;48.752;9.088;2023-02-05T11:44:56;11.17;;;5.33;;
8183;SDS011;4133;48.752;9.088;2023-02-05T11:47:24;12.63;;;5.77;;
8183;SDS011;4133;48.752;9.088;2023-02-05T11:49:51;13.73;;;6.07;;
8183;SDS011;4133;48.752;9.088;2023-02-05T11:52:21;12.03;;;5.30;;
8183;SDS011;4133;48.752;9.088;2023-02-05T11:54:48;11.73;;;5.27;;
8183;SDS011;4133;48.752;9.088;2023-02-05T12:02:32;18.57;;;6.60;;
8183;SDS011;4133;48.752;9.088;2023-02-05T12:08:25;14.13;;;6.00;;
8183;SDS011;4133;48.752;9.088;2023-02-05T12:17:14;11.17;;;5.53;;
8183;SDS011;4133;48.752;9.088;2023-02-05T12:19:20;9.17;;;4.90;;
8183;SDS011;4133;48.752;9.088;2023-02-05T12:22:01;9.57;;;5.20;;
8183;SDS011;4133;48.752;9.088;2023-02-05T12:24:50;12.73;;;5.40;;
8183;SDS011;4133;48.752;9.088;2023-02-05T12:35:19;7.60;;;5.37;;
8183;SDS011;4133;48.752;9.088;2023-02-05T12:37:56;8.57;;;4.83;;
8183;SDS011;4133;48.752;9.088;2023-02-05T12:40:29;12.40;;;5.23;;
8183;SDS011;4133;48.752;9.088;2023-02-05T12:43:09;10.87;;;5.33;;
8183;SDS011;4133;48.752;9.088;2023-02-05T12:45:44;10.87;;;5.63;;
8183;SDS011;4133;48.752;9.088;2023-02-05T12:51:06;10.17;;;5.10;;
8183;SDS011;4133;48.752;9.088;2023-02-05T12:56:25;9.73;;;5.00;;
8183;SDS011;4133;48.752;9.088;2023-02-05T12:58:56;10.50;;;5.37;;
8183;SDS011;4133;48.752;9.088;2023-02-05T13:02:10;7.00;;;4.77;;
8183;SDS011;4133;48.752;9.088;2023-02-05T13:04:21;8.97;;;5.27;;
8183;SDS011;4133;48.752;9.088;2023-02-05T13:06:49;6.77;;;4.60;;
8183;SDS011;4133;48.752;9.088;2023-02-05T13:09:24;7.37;;;4.17;;
8183;SDS011;4133;48.752;9.088;2023-02-05T13:12:01;6.03;;;4.17;;
8183;SDS011;4133;48.752;9.088;2023-02-05T13:14:33;4.23;;;3.60;;
8183;SDS011;4133;48.752;9.088;2023-02-05T13:17:01;6.07;;;3.70;;
8183;SDS011;4133;48.752;9.088;2023-02-05T13:20:13;4.00;;;3.10;;
8183;SDS011;4133;48.752;9.088;2023-02-05T13:22:21;2.73;;;2.50;;
8183;SDS011;4133;48.752;9.088;2023-02-05T13:25:15;3.17;;;2.73;;
8183;SDS011;4133;48.752;9.088;2023-02-05T13:31:19;4.18;;;3.78;;
8183;SDS011;4133;48.752;9.088;2023-02-05T13:33:46;3.23;;;2.93;;
8183;SDS011;4133;48.752;9.088;2023-02-05T13:46:52;2.47;;;2.27;;
8183;SDS011;4133;48.752;9.088;2023-02-05T13:57:16;2.57;;;2.30;;
8183;SDS011;4133;48.752;9.088;2023-02-05T13:59:49;2.40;;;2.20;;
8183;SDS011;4133;48.752;9.088;2023-02-05T14:04:45;2.67;;;2.40;;
8183;SDS011;4133;48.752;9.088;2023-02-05T14:07:25;3.67;;;2.30;;
8183;SDS011;4133;48.752;9.088;2023-02-05T14:09:53;3.17;;;2.83;;
8183;SDS011;4133;48.752;9.088;2023-02-05T14:22:54;2.80;;;2.60;;
8183;SDS011;4133;48.752;9.088;2023-02-05T14:32:59;3.50;;;2.77;;
8183;SDS011;4133;48.752;9.088;2023-02-05T14:35:27;2.63;;;2.43;;
8183;SDS011;4133;48.752;9.088;2023-02-05T14:37:54;2.40;;;2.20;;
8183;SDS011;4133;48.752;9.088;2023-02-05T14:40:35;3.20;;;2.80;;
8183;SDS011;4133;48.752;9.088;2023-02-05T14:43:25;3.60;;;2.77;;
8183;SDS011;4133;48.752;9.088;2023-02-05T14:45:48;3.60;;;2.60;;
8183;SDS011;4133;48.752;9.088;2023-02-05T14:48:19;2.67;;;2.47;;
8183;SDS011;4133;48.752;9.088;2023-02-05T14:50:46;3.07;;;2.77;;
8183;SDS011;4133;48.752;9.088;2023-02-05T14:53:21;2.90;;;2.63;;
8183;SDS011;4133;48.752;9.088;2023-02-05T14:55:50;4.97;;;3.00;;
8183;SDS011;4133;48.752;9.088;2023-02-05T14:58:23;3.67;;;2.67;;
8183;SDS011;4133;48.752;9.088;2023-02-05T15:00:51;3.07;;;2.80;;
8183;SDS011;4133;48.752;9.088;2023-02-05T15:03:37;3.70;;;3.20;;
8183;SDS011;4133;48.752;9.088;2023-02-05T15:06:09;4.13;;;2.80;;
8183;SDS011;4133;48.752;9.088;2023-02-05T15:08:40;4.67;;;3.20;;
8183;SDS011;4133;48.752;9.088;2023-02-05T15:16:45;4.37;;;2.63;;
8183;SDS011;4133;48.752;9.088;2023-02-05T15:19:12;3.43;;;3.13;;
8183;SDS011;4133;48.752;9.088;2023-02-05T15:21:39;5.13;;;3.20;;
8183;SDS011;4133;48.752;9.088;2023-02-05T15:24:14;5.70;;;2.97;;
8183;SDS011;4133;48.752;9.088;2023-02-05T15:29:21;3.97;;;3.20;;
8183;SDS011;4133;48.752;9.088;2023-02-05T15:31:53;4.67;;;3.17;;
8183;SDS011;4133;48.752;9.088;2023-02-05T15:36:53;4.07;;;3.17;;
8183;SDS011;4133;48.752;9.088;2023-02-05T15:41:53;4.47;;;3.53;;
8183;SDS011;4133;48.752;9.088;2023-02-05T15:44:25;3.90;;;3.50;;
8183;SDS011;4133;48.752;9.088;2023-02-05T15:46:52;4.30;;;3.87;;
8183;SDS011;4133;48.752;9.088;2023-02-05T15:49:19;4.40;;;4.00;;
8183;SDS011;4133;48.752;9.088;2023-02-05T15:51:45;3.97;;;3.20;;
8183;SDS011;4133;48.752;9.088;2023-02-05T15:54:15;3.50;;;3.20;;
8183;SDS011;4133;48.752;9.088;2023-02-05T15:56:43;3.53;;;2.90;;
8183;SDS011;4133;48.752;9.088;2023-02-05T15:59:14;3.20;;;2.90;;
8183;SDS011;4133;48.752;9.088;2023-02-05T16:04:28;2.97;;;2.73;;
8183;SDS011;4133;48.752;9.088;2023-02-05T16:06:55;4.03;;;3.70;;
8183;SDS011;4133;48.752;9.088;2023-02-05T16:09:21;4.70;;;4.20;;
8183;SDS011;4133;48.752;9.088;2023-02-05T16:11:49;4.13;;;3.73;;
8183;SDS011;4133;48.752;9.088;2023-02-05T16:14:31;18.57;;;13.57;;
8183;SDS011;4133;48.752;9.088;2023-02-05T16:24:42;13.13;;;10.37;;
8183;SDS011;4133;48.752;9.088;2023-02-05T16:27:11;4.80;;;4.37;;
8183;SDS011;4133;48.752;9.088;2023-02-05T16:29:39;6.27;;;5.07;;
8183;SDS011;4133;48.752;9.088;2023-02-05T16:32:16;11.10;;;9.43;;
8183;SDS011;4133;48.752;9.088;2023-02-05T16:34:45;8.47;;;6.70;;
8183;SDS011;4133;48.752;9.088;2023-02-05T16:37:13;3.83;;;3.40;;
8183;SDS011;4133;48.752;9.088;2023-02-05T16:39:50;7.77;;;6.53;;
8183;SDS011;4133;48.752;9.088;2023-02-05T16:44:48;4.40;;;4.00;;
8183;SDS011;4133;48.752;9.088;2023-02-05T16:47:17;4.70;;;4.17;;
8183;SDS011;4133;48.752;9.088;2023-02-05T16:49:44;6.03;;;5.47;;
8183;SDS011;4133;48.752;9.088;2023-02-05T16:52:23;4.77;;;4.37;;
8183;SDS011;4133;48.752;9.088;2023-02-05T16:54:49;3.87;;;3.53;;
8183;SDS011;4133;48.752;9.088;2023-02-05T16:57:21;4.20;;;3.80;;
8183;SDS011;4133;48.752;9.088;2023-02-05T16:59:49;3.73;;;3.40;;
8183;SDS011;4133;48.752;9.088;2023-02-05T17:02:26;9.03;;;8.23;;
8183;SDS011;4133;48.752;9.088;2023-02-05T17:04:53;3.97;;;3.57;;
8183;SDS011;4133;48.752;9.088;2023-02-05T17:07:20;3.93;;;3.63;;
8183;SDS011;4133;48.752;9.088;2023-02-05T17:09:47;6.97;;;5.87;;
8183;SDS011;4133;48.752;9.088;2023-02-05T17:14:58;4.13;;;3.73;;
8183;SDS011;4133;48.752;9.088;2023-02-05T17:17:26;4.40;;;4.00;;
8183;SDS011;4133;48.752;9.088;2023-02-05T17:20:16;4.10;;;3.70;;
8183;SDS011;4133;48.752;9.088;2023-02-05T17:25:27;4.23;;;3.80;;
8183;SDS011;4133;48.752;9.088;2023-02-05T17:27:53;4.27;;;3.87;;
8183;SDS011;4133;48.752;9.088;2023-02-05T17:30:20;4.33;;;3.87;;
8183;SDS011;4133;48.752;9.088;2023-02-05T17:32:46;5.40;;;4.83;;
8183;SDS011;4133;48.752;9.088;2023-02-05T17:35:18;5.57;;;4.93;;
8183;SDS011;4133;48.752;9.088;2023-02-05T17:37:51;5.03;;;4.53;;
8183;SDS011;4133;48.752;9.088;2023-02-05T17:40:17;4.90;;;4.50;;
8183;SDS011;4133;48.752;9.088;2023-02-05T17:42:43;7.77;;;7.07;;
8183;SDS011;4133;48.752;9.088;2023-02-05T17:45:15;5.10;;;4.63;;
8183;SDS011;4133;48.752;9.088;2023-02-05T17:47:42;8.80;;;7.97;;
8183;SDS011;4133;48.752;9.088;2023-02-05T17:50:08;5.90;;;5.30;;
8183;SDS011;4133;48.752;9.088;2023-02-05T17:52:34;7.40;;;5.03;;
8183;SDS011;4133;48.752;9.088;2023-02-05T17:55:00;8.70;;;7.30;;
8183;SDS011;4133;48.752;9.088;2023-02-05T17:57:26;6.70;;;5.80;;
8183;SDS011;4133;48.752;9.088;2023-02-05T17:59:57;7.37;;;6.63;;
8183;SDS011;4133;48.752;9.088;2023-02-05T18:02:23;7.47;;;6.50;;
8183;SDS011;4133;48.752;9.088;2023-02-05T18:04:50;6.77;;;5.87;;
8183;SDS011;4133;48.752;9.088;2023-02-05T18:07:24;7.10;;;6.17;;
8183;SDS011;4133;48.752;9.088;2023-02-05T18:09:52;8.83;;;6.97;;
8183;SDS011;4133;48.752;9.088;2023-02-05T18:12:18;8.20;;;7.40;;
8183;SDS011;4133;48.752;9.088;2023-02-05T18:14:53;8.07;;;6.73;;
8183;SDS011;4133;48.752;9.088;2023-02-05T18:17:19;8.73;;;7.87;;
8183;SDS011;4133;48.752;9.088;2023-02-05T18:19:45;14.97;;;13.40;;
8183;SDS011;4133;48.752;9.088;2023-02-05T18:22:11;22.27;;;17.13;;
8183;SDS011;4133;48.752;9.088;2023-02-05T18:24:38;11.57;;;9.63;;
8183;SDS011;4133;48.752;9.088;2023-02-05T18:27:05;10.90;;;9.27;;
8183;SDS011;4133;48.752;9.088;2023-02-05T18:29:36;10.25;;;8.15;;
8183;SDS011;4133;48.752;9.088;2023-02-05T18:32:02;8.67;;;7.77;;
8183;SDS011;4133;48.752;9.088;2023-02-05T18:34:29;12.50;;;10.40;;